sensor_id;sensor_type;location;lat;lon;timestamp;pressure;altitude;pressure_sealevel;temperature;humidity
10988;BME280;5547;42.672;23.230;2023-07-31T00:01:47;93035.91;;;17.38;100.00
10988;BME280;5547;42.672;23.230;2023-07-31T00:04:47;93052.13;;;17.53;100.00
10988;BME280;5547;42.672;23.230;2023-07-31T00:07:49;93056.72;;;17.61;100.00
10988;BME280;5547;42.672;23.230;2023-07-31T00:10:51;93051.34;;;17.61;100.00
10988;BME280;5547;42.672;23.230;2023-07-31T00:13:53;93055.06;;;17.64;100.00
10988;BME280;5547;42.672;23.230;2023-07-31T00:16:53;93053.13;;;17.64;100.00
10988;BME280;5547;42.672;23.230;2023-07-31T00:19:54;93044.94;;;17.59;100.00
10988;BME280;5547;42.672;23.230;2023-07-31T00:22:54;93034.81;;;17.54;100.00
10988;BME280;5547;42.672;23.230;2023-07-31T00:25:55;93029.53;;;17.59;100.00
10988;BME280;5547;42.672;23.230;2023-07-31T00:28:55;93021.81;;;17.52;100.00
10988;BME280;5547;42.672;23.230;2023-07-31T00:31:56;93008.13;;;17.41;100.00
10988;BME280;5547;42.672;23.230;2023-07-31T00:34:56;93010.22;;;17.37;100.00
10988;BME280;5547;42.672;23.230;2023-07-31T00:37:58;92999.47;;;17.37;100.00
10988;BME280;5547;42.672;23.230;2023-07-31T00:40:58;93001.31;;;17.31;100.00
10988;BME280;5547;42.672;23.230;2023-07-31T00:43:59;92941.31;;;16.82;100.00
10988;BME280;5547;42.672;23.230;2023-07-31T00:46:59;93007.75;;;17.24;100.00
10988;BME280;5547;42.672;23.230;2023-07-31T00:50:00;92998.50;;;17.16;100.00
10988;BME280;5547;42.672;23.230;2023-07-31T00:53:00;93006.13;;;17.17;100.00
10988;BME280;5547;42.672;23.230;2023-07-31T00:56:01;92969.47;;;16.96;100.00
10988;BME280;5547;42.672;23.230;2023-07-31T00:59:02;93002.09;;;17.13;100.00
10988;BME280;5547;42.672;23.230;2023-07-31T01:02:03;92991.47;;;17.18;100.00
10988;BME280;5547;42.672;23.230;2023-07-31T01:05:04;92997.47;;;17.13;100.00
10988;BME280;5547;42.672;23.230;2023-07-31T01:11:31;92998.88;;;16.99;100.00
10988;BME280;5547;42.672;23.230;2023-07-31T01:14:33;92943.44;;;16.59;100.00
10988;BME280;5547;42.672;23.230;2023-07-31T01:17:33;92978.03;;;16.85;100.00
10988;BME280;5547;42.672;23.230;2023-07-31T01:20:35;92972.22;;;16.68;100.00
10988;BME280;5547;42.672;23.230;2023-07-31T01:27:06;92975.19;;;16.61;100.00
10988;BME280;5547;42.672;23.230;2023-07-31T01:30:16;92966.28;;;16.55;100.00
10988;BME280;5547;42.672;23.230;2023-07-31T01:33:17;92978.97;;;16.54;100.00
10988;BME280;5547;42.672;23.230;2023-07-31T01:36:18;92990.13;;;16.53;100.00
10988;BME280;5547;42.672;23.230;2023-07-31T01:39:20;92964.22;;;16.41;100.00
10988;BME280;5547;42.672;23.230;2023-07-31T01:42:20;92983.13;;;16.55;100.00
10988;BME280;5547;42.672;23.230;2023-07-31T01:45:21;92982.53;;;16.51;100.00
10988;BME280;5547;42.672;23.230;2023-07-31T01:48:21;92975.97;;;16.52;100.00
10988;BME280;5547;42.672;23.230;2023-07-31T01:51:22;92925.19;;;16.12;100.00
10988;BME280;5547;42.672;23.230;2023-07-31T01:54:22;92961.53;;;16.50;100.00
10988;BME280;5547;42.672;23.230;2023-07-31T01:57:22;92982.06;;;16.71;100.00
10988;BME280;5547;42.672;23.230;2023-07-31T02:00:23;92982.63;;;16.94;100.00
10988;BME280;5547;42.672;23.230;2023-07-31T02:03:23;92985.88;;;16.98;100.00
10988;BME280;5547;42.672;23.230;2023-07-31T02:06:24;92970.25;;;16.87;100.00
10988;BME280;5547;42.672;23.230;2023-07-31T02:09:24;92956.94;;;16.93;100.00
10988;BME280;5547;42.672;23.230;2023-07-31T02:12:24;92973.78;;;17.02;100.00
10988;BME280;5547;42.672;23.230;2023-07-31T02:15:25;92931.16;;;16.86;100.00
10988;BME280;5547;42.672;23.230;2023-07-31T02:18:26;92987.44;;;17.23;100.00
10988;BME280;5547;42.672;23.230;2023-07-31T02:21:26;92994.16;;;17.18;100.00
10988;BME280;5547;42.672;23.230;2023-07-31T02:24:27;92993.88;;;17.16;100.00
10988;BME280;5547;42.672;23.230;2023-07-31T02:27:27;93000.56;;;17.21;100.00
10988;BME280;5547;42.672;23.230;2023-07-31T02:30:27;92989.41;;;17.13;100.00
10988;BME280;5547;42.672;23.230;2023-07-31T02:33:28;92991.81;;;17.11;100.00
10988;BME280;5547;42.672;23.230;2023-07-31T02:36:28;92975.72;;;17.02;100.00
10988;BME280;5547;42.672;23.230;2023-07-31T02:39:29;93001.94;;;17.16;100.00
10988;BME280;5547;42.672;23.230;2023-07-31T02:42:29;93002.84;;;17.13;100.00
10988;BME280;5547;42.672;23.230;2023-07-31T02:45:30;93009.09;;;17.19;100.00
10988;BME280;5547;42.672;23.230;2023-07-31T02:48:30;92950.09;;;16.92;100.00
10988;BME280;5547;42.672;23.230;2023-07-31T02:51:31;92977.22;;;17.03;100.00
10988;BME280;5547;42.672;23.230;2023-07-31T02:54:31;93001.34;;;17.21;100.00
10988;BME280;5547;42.672;23.230;2023-07-31T02:57:31;93011.88;;;17.34;100.00
10988;BME280;5547;42.672;23.230;2023-07-31T03:00:32;92970.63;;;17.04;100.00
10988;BME280;5547;42.672;23.230;2023-07-31T03:03:32;93012.94;;;17.28;100.00
10988;BME280;5547;42.672;23.230;2023-07-31T03:06:33;93020.13;;;17.31;100.00
10988;BME280;5547;42.672;23.230;2023-07-31T03:09:34;93018.16;;;17.31;100.00
10988;BME280;5547;42.672;23.230;2023-07-31T03:12:34;92981.06;;;17.11;100.00
10988;BME280;5547;42.672;23.230;2023-07-31T03:15:34;93014.44;;;17.29;100.00
10988;BME280;5547;42.672;23.230;2023-07-31T03:18:35;92976.59;;;17.08;100.00
10988;BME280;5547;42.672;23.230;2023-07-31T03:21:35;93023.94;;;17.39;100.00
10988;BME280;5547;42.672;23.230;2023-07-31T03:24:35;93005.63;;;17.28;100.00
10988;BME280;5547;42.672;23.230;2023-07-31T03:27:36;93032.47;;;17.37;100.00
10988;BME280;5547;42.672;23.230;2023-07-31T03:30:36;93035.91;;;17.38;100.00
10988;BME280;5547;42.672;23.230;2023-07-31T03:33:38;93049.31;;;17.47;100.00
10988;BME280;5547;42.672;23.230;2023-07-31T03:36:38;93045.41;;;17.48;100.00
10988;BME280;5547;42.672;23.230;2023-07-31T03:39:39;93043.66;;;17.45;100.00
10988;BME280;5547;42.672;23.230;2023-07-31T03:42:39;93047.53;;;17.44;100.00
10988;BME280;5547;42.672;23.230;2023-07-31T03:45:40;93050.22;;;17.44;100.00
10988;BME280;5547;42.672;23.230;2023-07-31T03:48:40;93055.00;;;17.49;100.00
10988;BME280;5547;42.672;23.230;2023-07-31T03:51:41;93030.56;;;17.29;100.00
10988;BME280;5547;42.672;23.230;2023-07-31T03:54:42;93068.56;;;17.55;100.00
10988;BME280;5547;42.672;23.230;2023-07-31T03:57:44;93031.88;;;17.42;100.00
10988;BME280;5547;42.672;23.230;2023-07-31T04:00:45;93054.66;;;17.56;100.00
10988;BME280;5547;42.672;23.230;2023-07-31T04:03:45;93051.38;;;17.52;100.00
10988;BME280;5547;42.672;23.230;2023-07-31T04:06:46;93065.53;;;17.62;100.00
10988;BME280;5547;42.672;23.230;2023-07-31T04:09:46;93059.75;;;17.54;100.00
10988;BME280;5547;42.672;23.230;2023-07-31T04:12:46;93073.25;;;17.69;100.00
10988;BME280;5547;42.672;23.230;2023-07-31T04:15:50;93071.59;;;17.72;100.00
10988;BME280;5547;42.672;23.230;2023-07-31T04:18:54;93072.78;;;17.80;100.00
10988;BME280;5547;42.672;23.230;2023-07-31T04:21:54;93050.09;;;17.72;100.00
10988;BME280;5547;42.672;23.230;2023-07-31T04:24:55;93073.22;;;17.88;100.00
10988;BME280;5547;42.672;23.230;2023-07-31T04:27:55;93087.97;;;17.92;100.00
10988;BME280;5547;42.672;23.230;2023-07-31T04:30:56;93089.44;;;18.02;100.00
10988;BME280;5547;42.672;23.230;2023-07-31T04:33:56;93072.22;;;18.00;100.00
10988;BME280;5547;42.672;23.230;2023-07-31T04:36:56;93047.66;;;17.83;100.00
10988;BME280;5547;42.672;23.230;2023-07-31T04:39:57;93075.34;;;18.08;100.00
10988;BME280;5547;42.672;23.230;2023-07-31T04:42:57;93083.31;;;18.26;100.00
10988;BME280;5547;42.672;23.230;2023-07-31T04:45:58;93032.63;;;18.24;100.00
10988;BME280;5547;42.672;23.230;2023-07-31T04:48:58;93053.56;;;18.83;100.00
10988;BME280;5547;42.672;23.230;2023-07-31T04:51:58;93083.41;;;19.39;100.00
10988;BME280;5547;42.672;23.230;2023-07-31T04:54:59;93067.56;;;19.77;100.00
10988;BME280;5547;42.672;23.230;2023-07-31T04:57:59;93073.56;;;20.22;100.00
10988;BME280;5547;42.672;23.230;2023-07-31T05:01:00;93039.44;;;19.83;100.00
10988;BME280;5547;42.672;23.230;2023-07-31T05:04:00;93088.59;;;19.72;100.00
10988;BME280;5547;42.672;23.230;2023-07-31T05:07:01;93050.31;;;19.39;100.00
10988;BME280;5547;42.672;23.230;2023-07-31T05:10:01;93079.84;;;19.78;100.00
10988;BME280;5547;42.672;23.230;2023-07-31T05:13:01;93080.94;;;19.86;100.00
10988;BME280;5547;42.672;23.230;2023-07-31T05:16:02;93073.38;;;19.40;100.00
10988;BME280;5547;42.672;23.230;2023-07-31T05:19:02;93078.56;;;19.28;100.00
10988;BME280;5547;42.672;23.230;2023-07-31T05:22:03;93066.63;;;19.80;100.00
10988;BME280;5547;42.672;23.230;2023-07-31T05:25:04;93085.44;;;20.30;100.00
10988;BME280;5547;42.672;23.230;2023-07-31T05:28:05;93083.97;;;20.70;100.00
10988;BME280;5547;42.672;23.230;2023-07-31T05:31:05;93073.78;;;20.80;100.00
10988;BME280;5547;42.672;23.230;2023-07-31T05:34:06;93010.84;;;19.71;100.00
10988;BME280;5547;42.672;23.230;2023-07-31T05:37:07;93090.06;;;19.88;100.00
10988;BME280;5547;42.672;23.230;2023-07-31T05:40:07;93082.06;;;19.79;100.00
10988;BME280;5547;42.672;23.230;2023-07-31T05:43:08;93057.13;;;19.84;100.00
10988;BME280;5547;42.672;23.230;2023-07-31T05:46:09;93081.53;;;20.72;100.00
10988;BME280;5547;42.672;23.230;2023-07-31T05:49:10;93078.31;;;20.47;100.00
10988;BME280;5547;42.672;23.230;2023-07-31T05:52:10;93059.88;;;20.46;100.00
10988;BME280;5547;42.672;23.230;2023-07-31T05:55:10;93061.84;;;20.66;100.00
10988;BME280;5547;42.672;23.230;2023-07-31T05:58:11;93066.41;;;20.80;100.00
10988;BME280;5547;42.672;23.230;2023-07-31T06:01:11;93104.97;;;21.01;100.00
10988;BME280;5547;42.672;23.230;2023-07-31T06:04:12;93094.72;;;20.85;100.00
10988;BME280;5547;42.672;23.230;2023-07-31T06:07:12;93098.63;;;20.63;100.00
10988;BME280;5547;42.672;23.230;2023-07-31T06:10:13;93087.19;;;20.94;100.00
10988;BME280;5547;42.672;23.230;2023-07-31T06:13:13;93080.03;;;20.91;100.00
10988;BME280;5547;42.672;23.230;2023-07-31T06:16:14;93112.06;;;20.98;100.00
10988;BME280;5547;42.672;23.230;2023-07-31T06:19:14;93096.81;;;20.34;100.00
10988;BME280;5547;42.672;23.230;2023-07-31T06:22:15;93069.66;;;20.23;100.00
10988;BME280;5547;42.672;23.230;2023-07-31T06:25:15;93104.72;;;20.02;100.00
10988;BME280;5547;42.672;23.230;2023-07-31T06:28:16;93104.34;;;20.09;100.00
10988;BME280;5547;42.672;23.230;2023-07-31T06:31:16;93068.69;;;20.05;100.00
10988;BME280;5547;42.672;23.230;2023-07-31T06:34:20;93101.50;;;20.19;100.00
10988;BME280;5547;42.672;23.230;2023-07-31T06:37:20;93059.06;;;19.84;100.00
10988;BME280;5547;42.672;23.230;2023-07-31T06:40:22;93104.97;;;20.40;100.00
10988;BME280;5547;42.672;23.230;2023-07-31T06:43:22;93065.19;;;20.40;100.00
10988;BME280;5547;42.672;23.230;2023-07-31T06:46:23;93090.03;;;20.44;100.00
10988;BME280;5547;42.672;23.230;2023-07-31T06:49:23;93113.53;;;20.99;100.00
10988;BME280;5547;42.672;23.230;2023-07-31T06:52:24;93084.91;;;20.26;100.00
10988;BME280;5547;42.672;23.230;2023-07-31T06:55:26;93109.84;;;20.56;100.00
10988;BME280;5547;42.672;23.230;2023-07-31T06:58:26;93091.88;;;20.73;100.00
10988;BME280;5547;42.672;23.230;2023-07-31T07:01:27;93111.28;;;20.72;100.00
10988;BME280;5547;42.672;23.230;2023-07-31T07:04:28;93095.41;;;20.59;100.00
10988;BME280;5547;42.672;23.230;2023-07-31T07:07:29;93059.19;;;20.30;100.00
10988;BME280;5547;42.672;23.230;2023-07-31T07:10:29;93055.06;;;20.35;100.00
10988;BME280;5547;42.672;23.230;2023-07-31T07:13:30;93074.66;;;20.71;100.00
10988;BME280;5547;42.672;23.230;2023-07-31T07:16:30;93083.22;;;20.49;100.00
10988;BME280;5547;42.672;23.230;2023-07-31T07:19:30;93091.81;;;20.68;100.00
10988;BME280;5547;42.672;23.230;2023-07-31T07:22:31;93073.69;;;20.94;100.00
10988;BME280;5547;42.672;23.230;2023-07-31T07:25:31;93107.41;;;21.51;100.00
10988;BME280;5547;42.672;23.230;2023-07-31T07:28:32;93047.59;;;20.91;100.00
10988;BME280;5547;42.672;23.230;2023-07-31T07:31:32;93077.47;;;21.60;100.00
10988;BME280;5547;42.672;23.230;2023-07-31T07:34:32;93112.91;;;21.10;100.00
10988;BME280;5547;42.672;23.230;2023-07-31T07:37:33;93097.09;;;21.29;100.00
10988;BME280;5547;42.672;23.230;2023-07-31T07:40:38;93118.47;;;21.79;100.00
10988;BME280;5547;42.672;23.230;2023-07-31T07:43:39;93057.88;;;20.87;100.00
10988;BME280;5547;42.672;23.230;2023-07-31T07:46:40;93112.84;;;21.51;100.00
10988;BME280;5547;42.672;23.230;2023-07-31T07:49:40;93118.81;;;21.93;100.00
10988;BME280;5547;42.672;23.230;2023-07-31T07:52:41;93111.88;;;21.92;100.00
10988;BME280;5547;42.672;23.230;2023-07-31T07:55:41;93072.25;;;21.51;100.00
10988;BME280;5547;42.672;23.230;2023-07-31T07:58:42;93095.53;;;21.75;100.00
10988;BME280;5547;42.672;23.230;2023-07-31T08:01:42;93128.59;;;22.71;100.00
10988;BME280;5547;42.672;23.230;2023-07-31T08:04:42;93085.84;;;22.43;100.00
10988;BME280;5547;42.672;23.230;2023-07-31T08:07:43;93080.34;;;22.92;100.00
10988;BME280;5547;42.672;23.230;2023-07-31T08:10:43;93132.44;;;23.13;100.00
10988;BME280;5547;42.672;23.230;2023-07-31T08:13:44;93119.53;;;22.31;100.00
10988;BME280;5547;42.672;23.230;2023-07-31T08:16:44;93122.56;;;22.44;100.00
10988;BME280;5547;42.672;23.230;2023-07-31T08:19:45;93122.97;;;22.80;100.00
10988;BME280;5547;42.672;23.230;2023-07-31T08:22:46;93090.47;;;22.26;100.00
10988;BME280;5547;42.672;23.230;2023-07-31T08:25:46;93105.28;;;21.98;100.00
10988;BME280;5547;42.672;23.230;2023-07-31T08:28:47;93098.88;;;21.96;100.00
10988;BME280;5547;42.672;23.230;2023-07-31T08:31:47;93116.56;;;22.29;100.00
10988;BME280;5547;42.672;23.230;2023-07-31T08:34:48;93124.63;;;22.60;100.00
10988;BME280;5547;42.672;23.230;2023-07-31T08:37:49;93131.19;;;22.48;100.00
10988;BME280;5547;42.672;23.230;2023-07-31T08:40:49;93117.09;;;21.95;100.00
10988;BME280;5547;42.672;23.230;2023-07-31T08:43:51;93112.34;;;21.85;100.00
10988;BME280;5547;42.672;23.230;2023-07-31T08:46:52;93125.94;;;21.96;100.00
10988;BME280;5547;42.672;23.230;2023-07-31T08:49:54;93117.41;;;22.09;100.00
10988;BME280;5547;42.672;23.230;2023-07-31T08:52:54;93033.69;;;22.05;100.00
10988;BME280;5547;42.672;23.230;2023-07-31T08:55:56;93121.81;;;23.03;100.00
10988;BME280;5547;42.672;23.230;2023-07-31T08:59:00;93119.38;;;23.00;100.00
10988;BME280;5547;42.672;23.230;2023-07-31T09:02:07;93116.19;;;22.10;100.00
10988;BME280;5547;42.672;23.230;2023-07-31T09:05:09;93117.66;;;22.05;100.00
10988;BME280;5547;42.672;23.230;2023-07-31T09:08:12;93062.59;;;22.25;100.00
10988;BME280;5547;42.672;23.230;2023-07-31T09:11:13;93124.09;;;23.33;100.00
10988;BME280;5547;42.672;23.230;2023-07-31T09:14:14;93121.97;;;23.82;100.00
10988;BME280;5547;42.672;23.230;2023-07-31T09:17:15;93090.81;;;23.55;100.00
10988;BME280;5547;42.672;23.230;2023-07-31T09:20:20;93113.53;;;23.41;100.00
10988;BME280;5547;42.672;23.230;2023-07-31T09:23:21;93104.00;;;22.85;100.00
10988;BME280;5547;42.672;23.230;2023-07-31T09:29:29;93111.47;;;23.07;100.00
10988;BME280;5547;42.672;23.230;2023-07-31T09:32:31;93104.41;;;23.95;100.00
10988;BME280;5547;42.672;23.230;2023-07-31T09:35:33;93105.22;;;24.76;99.81
10988;BME280;5547;42.672;23.230;2023-07-31T09:38:34;93105.13;;;24.06;100.00
10988;BME280;5547;42.672;23.230;2023-07-31T09:41:43;93093.31;;;23.76;100.00
10988;BME280;5547;42.672;23.230;2023-07-31T09:44:44;93083.16;;;23.37;100.00
10988;BME280;5547;42.672;23.230;2023-07-31T09:47:48;93106.13;;;23.53;100.00
10988;BME280;5547;42.672;23.230;2023-07-31T09:50:49;93107.09;;;23.61;100.00
10988;BME280;5547;42.672;23.230;2023-07-31T09:53:53;93096.72;;;23.42;100.00
10988;BME280;5547;42.672;23.230;2023-07-31T09:56:54;93080.69;;;23.61;100.00
10988;BME280;5547;42.672;23.230;2023-07-31T09:59:55;93074.19;;;24.32;100.00
10988;BME280;5547;42.672;23.230;2023-07-31T10:02:58;93099.88;;;24.37;87.98
10988;BME280;5547;42.672;23.230;2023-07-31T10:06:00;93045.34;;;24.12;86.13
10988;BME280;5547;42.672;23.230;2023-07-31T10:09:04;93050.50;;;24.21;81.12
10988;BME280;5547;42.672;23.230;2023-07-31T10:12:07;93092.34;;;24.77;77.18
10988;BME280;5547;42.672;23.230;2023-07-31T10:15:11;93080.84;;;24.48;74.66
10988;BME280;5547;42.672;23.230;2023-07-31T10:18:11;93089.94;;;24.56;69.18
10988;BME280;5547;42.672;23.230;2023-07-31T10:21:14;93057.84;;;24.38;65.95
10988;BME280;5547;42.672;23.230;2023-07-31T10:24:15;93081.94;;;24.86;66.19
10988;BME280;5547;42.672;23.230;2023-07-31T10:27:16;92999.13;;;24.23;70.44
10988;BME280;5547;42.672;23.230;2023-07-31T10:30:17;93080.25;;;24.78;66.48
10988;BME280;5547;42.672;23.230;2023-07-31T10:33:19;93077.72;;;24.85;68.05
10988;BME280;5547;42.672;23.230;2023-07-31T10:36:20;93086.31;;;24.31;68.10
10988;BME280;5547;42.672;23.230;2023-07-31T10:39:34;93073.19;;;24.41;66.74
10988;BME280;5547;42.672;23.230;2023-07-31T10:42:46;93064.13;;;24.04;67.11
10988;BME280;5547;42.672;23.230;2023-07-31T10:45:48;93047.06;;;24.85;69.79
10988;BME280;5547;42.672;23.230;2023-07-31T10:48:57;93060.19;;;24.81;63.69
10988;BME280;5547;42.672;23.230;2023-07-31T10:51:57;93006.28;;;24.26;63.43
10988;BME280;5547;42.672;23.230;2023-07-31T10:55:38;93067.63;;;24.74;62.07
10988;BME280;5547;42.672;23.230;2023-07-31T10:58:43;93052.81;;;24.76;58.81
10988;BME280;5547;42.672;23.230;2023-07-31T11:05:09;93041.03;;;24.98;56.90
10988;BME280;5547;42.672;23.230;2023-07-31T11:08:31;93056.53;;;24.67;56.85
10988;BME280;5547;42.672;23.230;2023-07-31T11:11:33;93046.88;;;24.71;59.65
10988;BME280;5547;42.672;23.230;2023-07-31T11:14:33;93010.84;;;25.37;57.03
10988;BME280;5547;42.672;23.230;2023-07-31T11:17:38;93051.16;;;25.44;55.62
10988;BME280;5547;42.672;23.230;2023-07-31T11:20:39;93008.47;;;25.58;53.67
10988;BME280;5547;42.672;23.230;2023-07-31T11:23:39;93046.84;;;25.85;54.61
10988;BME280;5547;42.672;23.230;2023-07-31T11:26:51;93039.09;;;25.94;55.05
10988;BME280;5547;42.672;23.230;2023-07-31T11:29:51;93036.91;;;25.63;54.89
10988;BME280;5547;42.672;23.230;2023-07-31T11:32:52;93063.19;;;25.24;55.27
10988;BME280;5547;42.672;23.230;2023-07-31T11:35:52;93040.53;;;25.41;58.64
10988;BME280;5547;42.672;23.230;2023-07-31T11:38:53;93018.03;;;25.40;57.26
10988;BME280;5547;42.672;23.230;2023-07-31T11:41:58;93037.31;;;25.72;56.00
10988;BME280;5547;42.672;23.230;2023-07-31T11:45:02;93047.28;;;25.64;55.45
10988;BME280;5547;42.672;23.230;2023-07-31T11:48:03;93049.66;;;25.73;54.57
10988;BME280;5547;42.672;23.230;2023-07-31T11:51:06;93051.09;;;25.80;56.02
10988;BME280;5547;42.672;23.230;2023-07-31T11:54:06;93043.50;;;25.73;53.98
10988;BME280;5547;42.672;23.230;2023-07-31T11:57:07;93038.91;;;26.36;56.36
10988;BME280;5547;42.672;23.230;2023-07-31T12:00:09;92959.47;;;25.58;54.22
10988;BME280;5547;42.672;23.230;2023-07-31T12:03:11;93000.78;;;25.87;58.47
10988;BME280;5547;42.672;23.230;2023-07-31T12:06:12;93023.16;;;25.74;57.08
10988;BME280;5547;42.672;23.230;2023-07-31T12:09:14;93033.66;;;25.94;56.88
10988;BME280;5547;42.672;23.230;2023-07-31T12:12:19;93018.88;;;25.84;56.00
10988;BME280;5547;42.672;23.230;2023-07-31T12:15:20;93006.63;;;26.21;57.54
10988;BME280;5547;42.672;23.230;2023-07-31T12:18:21;93005.31;;;26.47;53.95
10988;BME280;5547;42.672;23.230;2023-07-31T12:21:22;92998.66;;;25.74;56.40
10988;BME280;5547;42.672;23.230;2023-07-31T12:24:22;92996.28;;;26.14;56.15
10988;BME280;5547;42.672;23.230;2023-07-31T12:27:23;93015.88;;;25.88;54.18
10988;BME280;5547;42.672;23.230;2023-07-31T12:30:33;92997.06;;;25.84;53.76
10988;BME280;5547;42.672;23.230;2023-07-31T12:33:36;93015.69;;;25.80;54.81
10988;BME280;5547;42.672;23.230;2023-07-31T12:36:37;93019.91;;;26.06;53.10
10988;BME280;5547;42.672;23.230;2023-07-31T12:39:39;93025.78;;;25.85;53.78
10988;BME280;5547;42.672;23.230;2023-07-31T12:42:41;93023.78;;;25.91;53.49
10988;BME280;5547;42.672;23.230;2023-07-31T12:45:41;93008.81;;;25.73;53.56
10988;BME280;5547;42.672;23.230;2023-07-31T12:48:42;92991.50;;;25.10;56.46
10988;BME280;5547;42.672;23.230;2023-07-31T12:51:42;92997.19;;;25.73;56.53
10988;BME280;5547;42.672;23.230;2023-07-31T12:54:43;92998.72;;;26.61;53.87
10988;BME280;5547;42.672;23.230;2023-07-31T12:57:43;93001.44;;;26.99;52.34
10988;BME280;5547;42.672;23.230;2023-07-31T13:00:44;92995.94;;;26.23;53.22
10988;BME280;5547;42.672;23.230;2023-07-31T13:03:44;92989.72;;;26.85;56.30
10988;BME280;5547;42.672;23.230;2023-07-31T13:06:45;92996.66;;;26.05;54.91
10988;BME280;5547;42.672;23.230;2023-07-31T13:09:45;92974.22;;;25.02;56.38
10988;BME280;5547;42.672;23.230;2023-07-31T13:12:46;92977.44;;;24.65;55.69
10988;BME280;5547;42.672;23.230;2023-07-31T13:15:46;92996.22;;;25.04;54.39
10988;BME280;5547;42.672;23.230;2023-07-31T13:18:47;93001.84;;;24.82;57.17
10988;BME280;5547;42.672;23.230;2023-07-31T13:21:47;93004.25;;;24.91;56.64
10988;BME280;5547;42.672;23.230;2023-07-31T13:24:47;93005.06;;;25.22;55.43
10988;BME280;5547;42.672;23.230;2023-07-31T13:27:48;92987.34;;;25.40;52.87
10988;BME280;5547;42.672;23.230;2023-07-31T13:30:48;92994.09;;;25.33;52.52
10988;BME280;5547;42.672;23.230;2023-07-31T13:33:49;93002.56;;;25.78;50.71
10988;BME280;5547;42.672;23.230;2023-07-31T13:36:49;92968.03;;;25.07;52.81
10988;BME280;5547;42.672;23.230;2023-07-31T13:39:49;92982.88;;;25.67;53.47
10988;BME280;5547;42.672;23.230;2023-07-31T13:42:50;92974.44;;;25.70;51.62
10988;BME280;5547;42.672;23.230;2023-07-31T13:45:50;92985.00;;;26.04;49.86
10988;BME280;5547;42.672;23.230;2023-07-31T13:48:51;92995.38;;;26.30;49.97
10988;BME280;5547;42.672;23.230;2023-07-31T13:51:54;93002.59;;;26.47;49.28
10988;BME280;5547;42.672;23.230;2023-07-31T13:54:55;92998.78;;;26.12;51.00
10988;BME280;5547;42.672;23.230;2023-07-31T13:57:55;92988.69;;;25.82;51.58
10988;BME280;5547;42.672;23.230;2023-07-31T14:00:56;92988.41;;;25.55;54.93
10988;BME280;5547;42.672;23.230;2023-07-31T14:03:56;92973.22;;;25.41;54.69
10988;BME280;5547;42.672;23.230;2023-07-31T14:06:57;92995.16;;;26.04;55.29
10988;BME280;5547;42.672;23.230;2023-07-31T14:09:57;92989.59;;;25.66;54.74
10988;BME280;5547;42.672;23.230;2023-07-31T14:12:58;92990.09;;;25.64;54.59
10988;BME280;5547;42.672;23.230;2023-07-31T14:15:58;92996.25;;;25.65;55.23
10988;BME280;5547;42.672;23.230;2023-07-31T14:18:58;92929.59;;;25.71;53.52
10988;BME280;5547;42.672;23.230;2023-07-31T14:21:59;92990.44;;;26.48;53.68
10988;BME280;5547;42.672;23.230;2023-07-31T14:25:00;92986.03;;;27.01;50.97
10988;BME280;5547;42.672;23.230;2023-07-31T14:28:00;92987.75;;;27.63;49.22
10988;BME280;5547;42.672;23.230;2023-07-31T14:31:01;92964.16;;;27.20;50.05
10988;BME280;5547;42.672;23.230;2023-07-31T14:34:01;92987.53;;;26.65;53.28
10988;BME280;5547;42.672;23.230;2023-07-31T14:37:02;92941.13;;;26.46;51.88
10988;BME280;5547;42.672;23.230;2023-07-31T14:40:03;92968.88;;;27.01;51.11
10988;BME280;5547;42.672;23.230;2023-07-31T14:43:03;92970.84;;;26.68;52.62
10988;BME280;5547;42.672;23.230;2023-07-31T14:46:05;92990.25;;;27.16;51.17
10988;BME280;5547;42.672;23.230;2023-07-31T14:49:05;92901.59;;;27.22;50.78
10988;BME280;5547;42.672;23.230;2023-07-31T14:52:06;92959.22;;;27.78;49.63
10988;BME280;5547;42.672;23.230;2023-07-31T14:55:07;92973.81;;;27.21;50.98
10988;BME280;5547;42.672;23.230;2023-07-31T14:58:09;92980.91;;;27.43;50.01
10988;BME280;5547;42.672;23.230;2023-07-31T15:01:11;92948.19;;;26.35;52.56
10988;BME280;5547;42.672;23.230;2023-07-31T15:04:11;92966.53;;;25.06;57.62
10988;BME280;5547;42.672;23.230;2023-07-31T15:07:12;92990.16;;;25.58;57.03
10988;BME280;5547;42.672;23.230;2023-07-31T15:10:13;92994.22;;;26.20;55.85
10988;BME280;5547;42.672;23.230;2023-07-31T15:13:14;92995.47;;;26.81;54.24
10988;BME280;5547;42.672;23.230;2023-07-31T15:16:14;92974.41;;;25.46;58.22
10988;BME280;5547;42.672;23.230;2023-07-31T15:19:15;92990.91;;;25.29;59.70
10988;BME280;5547;42.672;23.230;2023-07-31T15:22:16;92993.19;;;25.13;59.94
10988;BME280;5547;42.672;23.230;2023-07-31T15:25:16;92935.28;;;24.47;60.61
10988;BME280;5547;42.672;23.230;2023-07-31T15:28:18;92999.00;;;24.57;61.72
10988;BME280;5547;42.672;23.230;2023-07-31T15:31:18;92965.84;;;24.64;60.67
10988;BME280;5547;42.672;23.230;2023-07-31T15:34:19;92936.31;;;24.32;61.38
10988;BME280;5547;42.672;23.230;2023-07-31T15:37:20;92990.28;;;24.17;61.38
10988;BME280;5547;42.672;23.230;2023-07-31T15:40:20;92974.59;;;23.76;61.63
10988;BME280;5547;42.672;23.230;2023-07-31T15:43:21;93005.19;;;23.71;62.20
10988;BME280;5547;42.672;23.230;2023-07-31T15:46:21;92994.84;;;23.53;63.00
10988;BME280;5547;42.672;23.230;2023-07-31T15:49:22;93014.31;;;23.85;63.48
10988;BME280;5547;42.672;23.230;2023-07-31T15:52:22;93014.47;;;24.15;62.76
10988;BME280;5547;42.672;23.230;2023-07-31T15:55:23;93010.25;;;24.20;63.09
10988;BME280;5547;42.672;23.230;2023-07-31T15:58:25;93011.28;;;24.11;63.44
10988;BME280;5547;42.672;23.230;2023-07-31T16:01:25;92965.47;;;23.51;64.38
10988;BME280;5547;42.672;23.230;2023-07-31T16:04:25;92974.56;;;23.87;62.75